Time;durP1;ratioP1;P1;durP2;ratioP2;P2;SDS_P1;SDS_P2;PMS_P1;PMS_P2;Temp;Humidity;BMP_temperature;BMP_pressure;BME280_temperature;BME280_humidity;BME280_pressure;Samples;Min_cycle;Max_cycle;Signal;HPM_P1;HPM_P2
2023/06/27 00:00:52;;;;;;;3.87;2.20;;;15.80;99.90;;;;;;5081069;28;20196;-69
2023/06/27 00:03:18;;;;;;;4.60;2.17;;;15.80;99.90;;;;;;5078108;28;20966;-69
2023/06/27 00:05:44;;;;;;;2.73;2.03;;;15.80;99.90;;;;;;5090908;28;20225;-69
2023/06/27 00:08:10;;;;;;;5.00;2.93;;;15.80;99.90;;;;;;5084915;28;20213;-69
2023/06/27 00:10:35;;;;;;;3.53;1.80;;;15.70;99.90;;;;;;5087475;28;20286;-69
2023/06/27 00:13:01;;;;;;;2.57;2.10;;;15.70;99.90;;;;;;5089759;28;20180;-69
2023/06/27 00:15:29;;;;;;;3.03;2.00;;;15.60;99.90;;;;;;5088468;28;20188;-69
2023/06/27 00:17:55;;;;;;;3.83;2.20;;;15.60;99.90;;;;;;5083391;28;20239;-69
2023/06/27 00:20:21;;;;;;;2.80;2.13;;;15.50;99.90;;;;;;5086804;28;20441;-69
2023/06/27 00:22:47;;;;;;;3.40;2.63;;;15.40;99.90;;;;;;5091488;28;20507;-69
2023/06/27 00:25:13;;;;;;;2.80;2.20;;;15.50;99.90;;;;;;5085819;28;20518;-69
2023/06/27 00:27:39;;;;;;;2.80;2.10;;;15.50;99.90;;;;;;5086061;28;20185;-69
2023/06/27 00:30:05;;;;;;;3.80;2.40;;;15.50;99.90;;;;;;5088297;28;20196;-69
2023/06/27 00:32:31;;;;;;;4.47;1.90;;;15.50;99.90;;;;;;5078143;28;20594;-69
2023/06/27 00:34:56;;;;;;;2.90;2.50;;;15.60;99.90;;;;;;5071937;28;20410;-69
2023/06/27 00:37:22;;;;;;;3.70;2.50;;;15.50;99.90;;;;;;5071931;28;20807;-69
2023/06/27 00:39:48;;;;;;;4.20;2.40;;;15.50;99.90;;;;;;5072017;28;20254;-69
2023/06/27 00:42:13;;;;;;;3.03;2.47;;;15.50;99.90;;;;;;5071227;28;20169;-69
2023/06/27 00:44:39;;;;;;;3.63;2.90;;;15.50;99.90;;;;;;5076170;28;20193;-69
2023/06/27 00:47:05;;;;;;;6.13;3.20;;;15.50;99.90;;;;;;5091823;28;20408;-69
2023/06/27 00:49:31;;;;;;;3.07;2.80;;;15.50;99.90;;;;;;5092119;28;20619;-68
2023/06/27 00:51:58;;;;;;;3.30;2.43;;;15.50;99.90;;;;;;5091548;28;20411;-68
2023/06/27 00:54:23;;;;;;;3.90;2.67;;;15.50;99.90;;;;;;5091755;28;20403;-68
2023/06/27 00:56:53;;;;;;;2.30;2.10;;;15.50;99.90;;;;;;5091451;28;20756;-68
2023/06/27 00:59:19;;;;;;;2.70;2.50;;;15.60;99.90;;;;;;5092053;28;20701;-68
2023/06/27 01:01:45;;;;;;;4.33;2.20;;;15.60;99.90;;;;;;5091399;28;20475;-69
2023/06/27 01:04:12;;;;;;;3.20;2.47;;;15.70;99.90;;;;;;5091360;28;20430;-68
2023/06/27 01:07:09;;;;;;;6.13;2.50;;;15.70;99.90;;;;;;5092075;28;21100;-69
2023/06/27 01:09:43;;;;;;;4.63;2.47;;;15.70;99.90;;;;;;5091499;28;20549;-69
2023/06/27 01:12:27;;;;;;;2.50;2.10;;;15.70;99.90;;;;;;5091162;28;20410;-69
2023/06/27 01:14:56;;;;;;;2.77;2.37;;;15.80;99.90;;;;;;5091071;28;20939;-69
2023/06/27 01:17:23;;;;;;;2.63;2.20;;;15.70;99.90;;;;;;5091527;28;20417;-69
2023/06/27 01:19:52;;;;;;;3.97;2.60;;;15.70;99.90;;;;;;5091353;28;20506;-69
2023/06/27 01:22:29;;;;;;;3.87;3.00;;;15.80;99.90;;;;;;5090783;28;20415;-69
2023/06/27 01:25:00;;;;;;;5.27;2.43;;;15.70;99.90;;;;;;5091220;28;20414;-69
2023/06/27 01:27:29;;;;;;;3.50;2.17;;;15.80;99.90;;;;;;5091286;28;20410;-69
2023/06/27 01:29:55;;;;;;;3.30;2.47;;;15.80;99.90;;;;;;5107475;28;20522;-69
2023/06/27 01:32:40;;;;;;;2.87;2.10;;;15.80;99.90;;;;;;5111050;28;20414;-69
2023/06/27 01:35:55;;;;;;;3.97;2.40;;;15.80;99.90;;;;;;5110167;28;20456;-69
2023/06/27 01:38:30;;;;;;;4.60;2.87;;;15.80;99.90;;;;;;5106401;28;20436;-69
2023/06/27 01:40:57;;;;;;;3.03;2.70;;;15.80;99.90;;;;;;5110281;28;20429;-69
2023/06/27 01:43:24;;;;;;;3.00;2.30;;;15.90;99.90;;;;;;5109148;28;20416;-69
2023/06/27 01:45:50;;;;;;;5.00;3.20;;;15.90;99.90;;;;;;5111482;28;20406;-69
2023/06/27 01:48:17;;;;;;;2.87;2.57;;;16.00;99.90;;;;;;5111176;27;20549;-69
2023/06/27 01:50:42;;;;;;;5.10;2.50;;;16.00;99.90;;;;;;5111291;28;20422;-69
2023/06/27 01:53:08;;;;;;;2.80;2.57;;;16.00;99.90;;;;;;5110322;28;20409;-68
2023/06/27 01:55:34;;;;;;;3.30;2.80;;;16.00;99.90;;;;;;5111195;28;20179;-68
2023/06/27 01:58:00;;;;;;;2.43;2.23;;;16.10;99.90;;;;;;5109358;28;20183;-69
2023/06/27 02:00:27;;;;;;;5.10;3.27;;;16.00;99.90;;;;;;5110986;28;20290;-69
2023/06/27 02:02:52;;;;;;;5.20;2.60;;;16.10;99.90;;;;;;5110436;28;20550;-69
2023/06/27 02:05:18;;;;;;;2.93;2.10;;;16.00;99.90;;;;;;5094399;28;20647;-69
2023/06/27 02:07:44;;;;;;;4.83;2.93;;;16.00;99.90;;;;;;5084726;28;20248;-69
2023/06/27 02:10:10;;;;;;;3.40;2.30;;;16.00;99.90;;;;;;5085879;28;20686;-69
2023/06/27 02:12:35;;;;;;;6.20;3.10;;;15.90;99.90;;;;;;5084395;28;20561;-69
2023/06/27 02:15:01;;;;;;;3.30;2.63;;;15.90;99.90;;;;;;5089888;28;20422;-69
2023/06/27 02:17:27;;;;;;;4.33;2.60;;;15.80;99.90;;;;;;5090308;28;20176;-69
2023/06/27 02:19:53;;;;;;;2.60;2.40;;;15.80;99.90;;;;;;5090493;28;20200;-69
2023/06/27 02:22:18;;;;;;;3.80;2.70;;;15.90;99.90;;;;;;5089737;28;20231;-69
2023/06/27 02:24:44;;;;;;;3.80;2.73;;;15.90;99.90;;;;;;5088765;28;20184;-69
2023/06/27 02:27:10;;;;;;;3.33;2.60;;;15.90;99.90;;;;;;5089513;28;20172;-69
2023/06/27 02:29:35;;;;;;;4.20;2.50;;;15.90;99.90;;;;;;5103556;28;20562;-69
2023/06/27 02:32:01;;;;;;;3.80;2.77;;;15.90;99.90;;;;;;5109937;28;20191;-69
2023/06/27 02:34:28;;;;;;;3.40;3.10;;;16.00;99.90;;;;;;5110060;28;20228;-69
2023/06/27 02:36:53;;;;;;;3.03;2.57;;;16.10;99.90;;;;;;5110433;28;20792;-69
2023/06/27 02:39:19;;;;;;;8.03;2.87;;;16.10;99.90;;;;;;5110221;28;20429;-68
2023/06/27 02:41:44;;;;;;;5.73;2.93;;;16.10;99.90;;;;;;5109754;28;20184;-68
2023/06/27 02:44:10;;;;;;;3.50;3.00;;;16.10;99.90;;;;;;5109964;28;20690;-68
2023/06/27 02:46:36;;;;;;;4.67;2.93;;;16.10;99.90;;;;;;5110244;28;20517;-68
2023/06/27 02:49:01;;;;;;;3.60;2.90;;;16.10;99.90;;;;;;5110166;28;20207;-68
2023/06/27 02:51:27;;;;;;;3.20;2.80;;;16.10;99.90;;;;;;5109464;28;20258;-68
2023/06/27 02:53:53;;;;;;;3.00;2.23;;;16.20;99.90;;;;;;5109888;28;20195;-68
2023/06/27 02:56:18;;;;;;;4.47;3.00;;;16.10;99.90;;;;;;5110004;28;20178;-68
2023/06/27 02:58:44;;;;;;;3.40;2.93;;;16.10;99.90;;;;;;5109597;28;20258;-68
2023/06/27 03:01:10;;;;;;;5.73;3.87;;;16.10;99.90;;;;;;5108159;28;20199;-68
2023/06/27 03:03:35;;;;;;;4.23;2.90;;;16.00;99.90;;;;;;5088366;28;20183;-68
2023/06/27 03:06:08;;;;;;;6.50;2.83;;;16.00;99.90;;;;;;5089511;28;20180;-68
2023/06/27 03:08:35;;;;;;;7.03;3.30;;;16.00;99.90;;;;;;5089655;28;20203;-68
2023/06/27 03:11:01;;;;;;;3.47;3.17;;;16.10;99.90;;;;;;5089334;28;20465;-69
2023/06/27 03:13:26;;;;;;;4.83;3.10;;;16.00;99.90;;;;;;5088543;28;20442;-69
2023/06/27 03:15:52;;;;;;;2.63;2.43;;;16.00;99.90;;;;;;5089485;28;20173;-69
2023/06/27 03:18:18;;;;;;;3.33;2.97;;;16.10;99.90;;;;;;5088989;28;20180;-68
2023/06/27 03:20:43;;;;;;;5.23;3.17;;;16.10;99.90;;;;;;5088837;28;20216;-69
2023/06/27 03:23:09;;;;;;;5.37;2.90;;;16.00;99.90;;;;;;5088136;28;20177;-68
2023/06/27 03:25:35;;;;;;;6.50;3.20;;;16.00;99.90;;;;;;5089191;28;20244;-69
2023/06/27 03:28:02;;;;;;;3.57;3.23;;;16.00;99.90;;;;;;5089014;28;20239;-69
2023/06/27 03:30:28;;;;;;;3.17;2.87;;;16.00;99.90;;;;;;5089166;28;20337;-69
2023/06/27 03:32:54;;;;;;;4.53;2.93;;;16.00;99.90;;;;;;5088417;28;20965;-69
2023/06/27 03:35:19;;;;;;;3.30;2.90;;;16.00;99.90;;;;;;5088659;28;20450;-69
2023/06/27 03:37:45;;;;;;;3.40;3.00;;;16.10;99.90;;;;;;5087389;28;20509;-69
2023/06/27 03:40:11;;;;;;;5.07;3.03;;;16.00;99.90;;;;;;5084019;28;20617;-68
2023/06/27 03:42:37;;;;;;;5.17;3.03;;;16.00;99.90;;;;;;5086000;28;20691;-68
2023/06/27 03:45:03;;;;;;;5.80;3.40;;;16.00;99.90;;;;;;5088548;28;20195;-68
2023/06/27 03:47:29;;;;;;;3.57;2.70;;;16.10;99.90;;;;;;5088837;28;20552;-68
2023/06/27 03:49:55;;;;;;;3.50;3.13;;;16.10;99.90;;;;;;5088798;28;20458;-68
2023/06/27 03:52:21;;;;;;;3.37;2.83;;;16.10;99.90;;;;;;5088067;28;20748;-68
2023/06/27 03:54:47;;;;;;;4.43;2.83;;;16.20;99.90;;;;;;5088364;28;20169;-68
2023/06/27 03:57:12;;;;;;;3.67;2.83;;;16.20;99.90;;;;;;5086868;28;20241;-68
2023/06/27 03:59:38;;;;;;;3.33;3.03;;;16.10;99.90;;;;;;5088837;28;20604;-69
2023/06/27 04:02:04;;;;;;;4.20;3.17;;;16.20;99.90;;;;;;5088120;28;20267;-69
2023/06/27 04:04:30;;;;;;;5.03;3.10;;;16.20;99.90;;;;;;5088336;28;20196;-69
2023/06/27 04:06:55;;;;;;;3.67;2.80;;;16.30;99.90;;;;;;5088721;28;20249;-69
2023/06/27 04:09:21;;;;;;;6.10;2.97;;;16.30;99.90;;;;;;5088459;28;20207;-69
2023/06/27 04:11:46;;;;;;;4.47;3.30;;;16.30;99.90;;;;;;5086844;28;20204;-69
2023/06/27 04:14:17;;;;;;;4.77;2.83;;;16.30;99.90;;;;;;5088299;28;20176;-68
2023/06/27 04:16:43;;;;;;;7.50;3.50;;;16.30;99.90;;;;;;5088745;28;20164;-68
2023/06/27 04:19:09;;;;;;;7.17;2.67;;;16.30;99.90;;;;;;5088714;28;20441;-68
2023/06/27 04:21:35;;;;;;;3.60;2.70;;;16.40;99.90;;;;;;5086765;28;20430;-68
2023/06/27 04:24:00;;;;;;;6.27;3.27;;;16.30;99.90;;;;;;5088200;28;20173;-69
2023/06/27 04:26:27;;;;;;;4.40;3.30;;;16.40;99.90;;;;;;5087310;28;20672;-68
2023/06/27 04:28:52;;;;;;;5.80;3.57;;;16.40;99.90;;;;;;5088380;28;20207;-69
2023/06/27 04:31:18;;;;;;;4.83;2.60;;;16.30;99.90;;;;;;5088075;28;20402;-69
2023/06/27 04:33:44;;;;;;;7.00;3.40;;;16.30;99.90;;;;;;5087099;28;20272;-69
2023/06/27 04:36:10;;;;;;;5.03;3.07;;;16.30;99.90;;;;;;5088436;28;20173;-68
2023/06/27 04:38:39;;;;;;;5.30;2.90;;;16.40;99.90;;;;;;5088584;28;20452;-68
2023/06/27 04:41:09;;;;;;;3.63;3.10;;;16.40;99.90;;;;;;5082698;28;20207;-69
2023/06/27 04:43:35;;;;;;;4.37;2.87;;;16.40;99.90;;;;;;5087260;28;20939;-69
2023/06/27 04:46:01;;;;;;;6.73;3.87;;;16.40;99.90;;;;;;5088275;28;20778;-69
2023/06/27 04:48:27;;;;;;;6.80;3.70;;;16.40;99.90;;;;;;5088314;28;20466;-68
2023/06/27 04:50:54;;;;;;;3.90;2.87;;;16.40;99.90;;;;;;5089514;28;20441;-68
2023/06/27 04:53:20;;;;;;;4.63;3.13;;;16.50;99.90;;;;;;5090563;28;20449;-68
2023/06/27 04:55:47;;;;;;;5.30;3.40;;;16.60;99.90;;;;;;5091898;28;20418;-68
2023/06/27 04:58:13;;;;;;;4.43;2.53;;;16.80;99.90;;;;;;5087761;28;20423;-69
2023/06/27 05:00:39;;;;;;;3.30;2.87;;;16.90;99.90;;;;;;5087378;28;20884;-68
2023/06/27 05:03:05;;;;;;;5.80;3.40;;;16.90;99.90;;;;;;5090482;28;20426;-69
2023/06/27 05:05:34;;;;;;;9.83;3.90;;;16.90;99.90;;;;;;5083453;28;20271;-68
2023/06/27 05:08:06;;;;;;;5.23;4.03;;;17.00;99.90;;;;;;5082163;28;20184;-68
2023/06/27 05:10:33;;;;;;;9.20;3.50;;;17.10;99.90;;;;;;5088029;28;20438;-69
2023/06/27 05:12:59;;;;;;;5.20;3.30;;;17.10;99.90;;;;;;5090346;28;20422;-68
2023/06/27 05:15:26;;;;;;;4.70;2.80;;;17.20;99.90;;;;;;5091384;28;20916;-69
2023/06/27 05:18:13;;;;;;;6.80;3.83;;;17.20;99.90;;;;;;5091216;28;20475;-69
2023/06/27 05:20:40;;;;;;;5.63;3.17;;;17.20;99.90;;;;;;5086981;28;20787;-69
2023/06/27 05:23:05;;;;;;;4.13;3.17;;;17.20;99.90;;;;;;5090552;28;20411;-68
2023/06/27 05:25:32;;;;;;;8.23;3.93;;;17.20;99.90;;;;;;5091085;28;20768;-69
2023/06/27 05:27:59;;;;;;;8.93;4.10;;;17.20;99.90;;;;;;5090826;28;20177;-69
2023/06/27 05:30:26;;;;;;;8.10;3.70;;;17.30;99.90;;;;;;5070759;28;20752;-70
2023/06/27 05:32:52;;;;;;;4.47;3.80;;;17.30;99.90;;;;;;5087024;28;20471;-69
2023/06/27 05:35:17;;;;;;;8.43;4.20;;;17.40;99.90;;;;;;5090587;28;21075;-69
2023/06/27 05:37:43;;;;;;;6.03;3.33;;;17.40;99.90;;;;;;5090743;28;20540;-69
2023/06/27 05:40:09;;;;;;;6.20;3.93;;;17.40;99.90;;;;;;5090766;28;20196;-68
2023/06/27 05:42:38;;;;;;;5.90;3.33;;;17.50;99.90;;;;;;5090315;28;20173;-68
2023/06/27 05:45:04;;;;;;;6.73;3.97;;;17.50;99.90;;;;;;5084232;28;20756;-68
2023/06/27 05:47:29;;;;;;;4.63;4.13;;;17.50;99.90;;;;;;5090160;28;20460;-68
2023/06/27 05:49:55;;;;;;;8.57;3.60;;;17.50;99.90;;;;;;5089014;28;20534;-69
2023/06/27 05:52:21;;;;;;;7.73;4.03;;;17.50;99.90;;;;;;5089649;28;20310;-69
2023/06/27 05:54:46;;;;;;;8.90;4.00;;;17.50;99.90;;;;;;5090023;28;20526;-69
2023/06/27 05:57:12;;;;;;;7.27;4.30;;;17.60;99.90;;;;;;5088728;28;20664;-69
2023/06/27 05:59:38;;;;;;;5.90;3.60;;;17.50;99.90;;;;;;5087692;28;20295;-68
2023/06/27 06:02:04;;;;;;;6.00;3.80;;;17.50;99.90;;;;;;5087960;28;20188;-69
2023/06/27 06:04:30;;;;;;;4.53;3.53;;;17.50;99.90;;;;;;5085655;28;20386;-69
2023/06/27 06:06:56;;;;;;;8.00;3.43;;;17.50;99.90;;;;;;5077917;28;20177;-69
2023/06/27 06:09:22;;;;;;;9.00;3.80;;;17.50;99.90;;;;;;5079169;28;20482;-69
2023/06/27 06:11:48;;;;;;;3.80;3.33;;;17.50;99.90;;;;;;5069017;28;20588;-69
2023/06/27 06:14:13;;;;;;;6.73;4.10;;;17.60;99.90;;;;;;5072404;28;20322;-69
2023/06/27 06:16:39;;;;;;;5.13;3.63;;;17.50;99.90;;;;;;5081453;28;20655;-69
2023/06/27 06:19:06;;;;;;;6.87;4.20;;;17.50;99.90;;;;;;5086721;28;20195;-69
2023/06/27 06:21:32;;;;;;;6.70;3.70;;;17.40;99.90;;;;;;5084651;28;20177;-69
2023/06/27 06:23:58;;;;;;;5.33;3.90;;;17.50;99.90;;;;;;5089267;28;20410;-69
2023/06/27 06:26:24;;;;;;;5.10;3.70;;;17.40;99.90;;;;;;5086167;28;20673;-69
2023/06/27 06:28:49;;;;;;;6.13;3.77;;;17.50;99.90;;;;;;5088378;28;20461;-69
2023/06/27 06:31:16;;;;;;;7.23;3.30;;;17.60;99.90;;;;;;5087686;28;20220;-69
2023/06/27 06:33:44;;;;;;;9.43;3.80;;;17.70;99.90;;;;;;5082150;28;20279;-69
2023/06/27 06:36:10;;;;;;;8.13;4.37;;;18.00;99.90;;;;;;5087923;28;20998;-69
2023/06/27 06:38:36;;;;;;;7.83;3.70;;;18.30;99.90;;;;;;5085929;28;20502;-68
2023/06/27 06:41:02;;;;;;;4.77;4.07;;;18.50;99.90;;;;;;5079511;28;20435;-68
2023/06/27 06:43:28;;;;;;;10.20;4.10;;;18.80;99.90;;;;;;5077920;28;20569;-69
2023/06/27 06:45:54;;;;;;;10.70;4.77;;;19.00;99.90;;;;;;5077640;28;20498;-69
2023/06/27 06:48:19;;;;;;;11.93;5.20;;;19.10;99.90;;;;;;5079155;28;20240;-68
2023/06/27 06:50:46;;;;;;;8.10;4.50;;;19.20;99.90;;;;;;5082938;28;20207;-69
2023/06/27 06:53:12;;;;;;;8.50;4.53;;;19.20;99.90;;;;;;5086748;28;20168;-69
2023/06/27 06:55:37;;;;;;;11.23;4.50;;;19.30;99.90;;;;;;5089124;28;20417;-69
2023/06/27 06:58:04;;;;;;;10.57;4.87;;;19.30;99.90;;;;;;5088504;28;20250;-69
2023/06/27 07:00:30;;;;;;;10.97;4.57;;;19.40;99.90;;;;;;5089100;28;20847;-68
2023/06/27 07:02:56;;;;;;;6.80;4.00;;;19.40;99.90;;;;;;5085330;28;21003;-68
2023/06/27 07:05:22;;;;;;;10.17;4.13;;;19.40;99.90;;;;;;5080665;28;20766;-70
2023/06/27 07:07:48;;;;;;;14.10;5.30;;;19.50;99.90;;;;;;5089154;28;20403;-69
2023/06/27 07:10:14;;;;;;;9.63;4.47;;;19.70;99.90;;;;;;5088747;28;20536;-69
2023/06/27 07:12:40;;;;;;;10.40;4.80;;;19.80;99.90;;;;;;5088246;28;20198;-68
2023/06/27 07:15:07;;;;;;;8.07;4.53;;;19.90;99.90;;;;;;5088622;28;20231;-67
2023/06/27 07:17:35;;;;;;;7.90;4.77;;;19.90;99.90;;;;;;5088801;28;20407;-69
2023/06/27 07:20:01;;;;;;;13.17;4.23;;;20.10;99.90;;;;;;5088735;28;20895;-69
2023/06/27 07:22:27;;;;;;;8.33;4.37;;;20.20;99.90;;;;;;5088352;28;20911;-68
2023/06/27 07:24:52;;;;;;;23.83;5.57;;;20.20;99.90;;;;;;5088640;28;20423;-69
2023/06/27 07:27:18;;;;;;;5.80;4.30;;;20.10;99.90;;;;;;5088775;28;20177;-69
2023/06/27 07:29:44;;;;;;;8.97;4.90;;;20.10;99.90;;;;;;5103334;28;20565;-68
2023/06/27 07:32:13;;;;;;;7.87;4.67;;;20.20;99.90;;;;;;5095193;28;20169;-68
2023/06/27 07:34:39;;;;;;;16.03;6.40;;;20.30;99.90;;;;;;5088342;28;20604;-67
2023/06/27 07:37:06;;;;;;;7.20;5.30;;;20.30;99.90;;;;;;5088824;28;20406;-70
2023/06/27 07:39:32;;;;;;;7.87;4.60;;;20.30;99.90;;;;;;5088554;28;20203;-68
2023/06/27 07:41:58;;;;;;;8.57;5.07;;;20.30;99.90;;;;;;5088339;28;21007;-67
2023/06/27 07:44:25;;;;;;;9.27;4.87;;;20.40;99.90;;;;;;5088247;28;20291;-68
2023/06/27 07:46:51;;;;;;;8.60;5.07;;;20.50;99.90;;;;;;5067880;28;20217;-66
2023/06/27 07:49:17;;;;;;;9.63;5.07;;;20.60;99.90;;;;;;5068032;28;20490;-67
2023/06/27 07:51:43;;;;;;;10.57;4.60;;;20.60;99.90;;;;;;5067978;28;20784;-67
2023/06/27 07:54:09;;;;;;;8.00;4.40;;;20.70;99.90;;;;;;5068010;28;20403;-68
2023/06/27 07:56:35;;;;;;;7.50;5.03;;;20.90;99.90;;;;;;5068180;28;20415;-68
2023/06/27 07:59:02;;;;;;;7.80;4.63;;;21.00;99.90;;;;;;5067964;28;20408;-69
2023/06/27 08:01:28;;;;;;;7.90;4.77;;;21.00;99.90;;;;;;5067868;28;20291;-70
2023/06/27 08:03:53;;;;;;;7.57;4.67;;;21.00;99.90;;;;;;5071752;28;20437;-68
2023/06/27 08:06:19;;;;;;;12.77;5.37;;;20.90;99.90;;;;;;5088219;28;20670;-68
2023/06/27 08:08:45;;;;;;;12.50;5.33;;;20.90;99.90;;;;;;5088103;28;20212;-68
2023/06/27 08:11:11;;;;;;;12.33;5.53;;;20.90;99.90;;;;;;5088075;28;20200;-69
2023/06/27 08:13:41;;;;;;;7.80;4.77;;;20.80;99.90;;;;;;5087746;28;20173;-68
2023/06/27 08:16:08;;;;;;;8.97;4.67;;;20.70;99.90;;;;;;5088121;28;20259;-68
2023/06/27 08:18:34;;;;;;;10.57;5.23;;;20.80;99.90;;;;;;5088170;28;20425;-68
2023/06/27 08:20:59;;;;;;;10.87;5.00;;;20.80;99.90;;;;;;5088009;28;20427;-68
2023/06/27 08:23:26;;;;;;;6.93;4.50;;;20.80;99.90;;;;;;5086213;28;20173;-68
2023/06/27 08:25:53;;;;;;;9.63;4.90;;;20.80;99.90;;;;;;5090853;28;20186;-67
2023/06/27 08:28:18;;;;;;;9.93;4.63;;;20.90;99.90;;;;;;5091801;28;20489;-67
2023/06/27 08:30:44;;;;;;;7.77;4.00;;;20.80;99.90;;;;;;5092072;28;20919;-68
2023/06/27 08:33:10;;;;;;;10.73;4.97;;;20.80;99.90;;;;;;5091478;28;20218;-68
2023/06/27 08:35:36;;;;;;;5.90;3.90;;;20.90;99.90;;;;;;5091814;28;20169;-68
2023/06/27 08:38:01;;;;;;;9.27;4.03;;;21.00;99.90;;;;;;5092164;28;20177;-69
2023/06/27 08:40:29;;;;;;;6.17;3.70;;;21.10;99.90;;;;;;5091748;28;20790;-70
2023/06/27 08:42:55;;;;;;;6.33;3.83;;;21.30;99.90;;;;;;5091535;28;20657;-68
2023/06/27 08:45:20;;;;;;;6.00;4.33;;;21.40;99.90;;;;;;5091349;28;20418;-68
2023/06/27 08:47:49;;;;;;;8.80;3.60;;;21.60;99.90;;;;;;5091430;28;20645;-68
2023/06/27 08:50:17;;;;;;;10.27;4.13;;;21.70;99.90;;;;;;5091225;28;20216;-68
2023/06/27 08:52:47;;;;;;;8.90;4.10;;;21.70;99.90;;;;;;5090951;28;20411;-68
2023/06/27 08:55:25;;;;;;;7.77;4.57;;;21.70;99.90;;;;;;5091153;28;20403;-68
2023/06/27 08:57:53;;;;;;;9.07;4.80;;;21.70;99.90;;;;;;5091262;28;20463;-68
2023/06/27 09:00:22;;;;;;;9.47;3.93;;;21.80;99.90;;;;;;5091030;28;20436;-68
2023/06/27 09:02:48;;;;;;;8.93;3.93;;;21.90;99.90;;;;;;5090702;28;20419;-67
2023/06/27 09:05:15;;;;;;;9.07;3.60;;;22.00;99.90;;;;;;5090743;28;20510;-67
2023/06/27 09:07:42;;;;;;;7.33;3.90;;;22.00;99.90;;;;;;5091194;28;20425;-69
2023/06/27 09:10:09;;;;;;;7.73;3.53;;;22.00;99.90;;;;;;5090957;28;20498;-67
2023/06/27 09:12:37;;;;;;;6.17;3.43;;;22.00;99.90;;;;;;5090764;28;20899;-68
2023/06/27 09:15:04;;;;;;;8.40;4.13;;;22.00;99.90;;;;;;5090816;28;20452;-68
2023/06/27 09:17:29;;;;;;;6.57;4.17;;;21.90;99.90;;;;;;5091027;28;20414;-68
2023/06/27 09:19:55;;;;;;;7.10;4.70;;;21.70;99.90;;;;;;5091095;28;20430;-68
2023/06/27 09:22:23;;;;;;;7.03;4.50;;;21.60;99.90;;;;;;5090791;28;20181;-68
2023/06/27 09:24:49;;;;;;;8.70;5.00;;;21.60;99.90;;;;;;5090826;28;20271;-69
2023/06/27 09:27:31;;;;;;;7.87;3.90;;;21.50;99.90;;;;;;5089210;28;20549;-69
2023/06/27 09:30:07;;;;;;;6.30;4.13;;;21.50;99.90;;;;;;5088207;28;20580;-69
2023/06/27 09:32:33;;;;;;;6.03;3.70;;;21.50;99.90;;;;;;5090473;28;20414;-68
2023/06/27 09:35:03;;;;;;;7.73;3.70;;;21.70;99.90;;;;;;5090536;28;20403;-69
2023/06/27 09:37:33;;;;;;;4.73;3.23;;;21.90;99.90;;;;;;5090557;28;20505;-69
2023/06/27 09:40:19;;;;;;;5.47;3.47;;;22.10;99.90;;;;;;5090853;28;20841;-69
2023/06/27 09:42:52;;;;;;;5.13;3.30;;;22.30;99.90;;;;;;5090303;28;20413;-68
2023/06/27 09:45:19;;;;;;;7.47;3.30;;;22.30;99.90;;;;;;5090480;28;20852;-69
2023/06/27 09:47:47;;;;;;;7.07;4.50;;;22.30;99.90;;;;;;5090358;28;20414;-69
2023/06/27 09:50:13;;;;;;;6.53;3.93;;;22.20;99.90;;;;;;5090474;28;20963;-69
2023/06/27 09:52:39;;;;;;;5.33;3.97;;;22.10;99.70;;;;;;5089998;28;20414;-68
2023/06/27 09:55:18;;;;;;;4.13;3.60;;;21.90;99.90;;;;;;5090215;28;20176;-69
2023/06/27 09:57:47;;;;;;;7.13;4.00;;;21.80;99.90;;;;;;5088228;28;20179;-69
2023/06/27 10:00:14;;;;;;;8.60;3.50;;;21.80;99.90;;;;;;5090294;28;20426;-69
2023/06/27 10:02:41;;;;;;;4.43;3.40;;;22.00;99.90;;;;;;5089880;28;20421;-70
2023/06/27 10:05:07;;;;;;;5.67;3.40;;;22.10;99.90;;;;;;5090044;28;20806;-69
2023/06/27 10:07:34;;;;;;;7.37;3.80;;;22.20;99.70;;;;;;5089972;28;20472;-69
2023/06/27 10:10:00;;;;;;;5.70;3.40;;;22.40;99.90;;;;;;5090073;28;20486;-69
2023/06/27 10:12:26;;;;;;;4.57;3.23;;;22.50;99.10;;;;;;5089629;28;20438;-69
2023/06/27 10:14:53;;;;;;;6.10;3.20;;;22.60;99.60;;;;;;5090115;28;20476;-69
2023/06/27 10:17:19;;;;;;;6.97;3.37;;;22.70;99.30;;;;;;5089987;28;20474;-69
2023/06/27 10:19:46;;;;;;;5.00;3.63;;;22.80;98.80;;;;;;5089860;28;21163;-69
2023/06/27 10:22:17;;;;;;;5.57;3.43;;;22.80;98.50;;;;;;5089359;28;20418;-69
2023/06/27 10:24:46;;;;;;;5.33;3.27;;;22.60;98.30;;;;;;5089711;28;20406;-69
2023/06/27 10:27:15;;;;;;;10.13;3.53;;;22.40;98.60;;;;;;5089643;28;20418;-68
2023/06/27 10:29:42;;;;;;;4.80;3.00;;;22.30;99.90;;;;;;5103960;28;20457;-69
2023/06/27 10:32:08;;;;;;;3.23;2.90;;;22.30;99.90;;;;;;5108252;28;20417;-68
2023/06/27 10:34:42;;;;;;;5.57;3.70;;;22.20;98.90;;;;;;5109825;28;20425;-68
2023/06/27 10:37:24;;;;;;;6.30;3.30;;;22.10;99.20;;;;;;5109956;28;20451;-68
2023/06/27 10:39:57;;;;;;;5.10;3.20;;;22.10;99.90;;;;;;5109811;28;20533;-69
2023/06/27 10:42:23;;;;;;;3.77;3.10;;;22.10;99.70;;;;;;5086474;28;20470;-69
2023/06/27 10:45:04;;;;;;;5.93;3.17;;;22.00;99.70;;;;;;5088146;28;20830;-68
2023/06/27 10:47:38;;;;;;;3.80;2.43;;;22.00;99.60;;;;;;5077840;28;20176;-68
2023/06/27 10:50:06;;;;;;;4.23;2.83;;;22.00;98.90;;;;;;5083349;28;20827;-68
2023/06/27 10:52:33;;;;;;;3.87;2.60;;;21.90;98.10;;;;;;5084130;28;20689;-69
2023/06/27 10:55:13;;;;;;;7.47;3.10;;;21.90;98.50;;;;;;5082179;28;20435;-68
2023/06/27 10:57:40;;;;;;;10.60;3.13;;;21.80;98.00;;;;;;5084710;28;20418;-68
2023/06/27 11:00:16;;;;;;;6.40;3.03;;;21.90;98.30;;;;;;5083616;28;20878;-69
2023/06/27 11:02:42;;;;;;;5.33;2.80;;;21.90;97.40;;;;;;5084269;28;20483;-69
2023/06/27 11:05:16;;;;;;;6.20;2.77;;;21.80;97.60;;;;;;5082899;28;21036;-69
2023/06/27 11:07:57;;;;;;;5.20;2.60;;;21.90;98.10;;;;;;5084604;28;20419;-68
2023/06/27 11:10:29;;;;;;;6.57;2.77;;;21.80;97.90;;;;;;5083530;28;20495;-68
2023/06/27 11:13:15;;;;;;;4.60;2.80;;;21.80;98.40;;;;;;5080359;28;20768;-69
2023/06/27 11:15:42;;;;;;;7.30;3.33;;;21.90;98.30;;;;;;5084556;28;20927;-68
2023/06/27 11:18:09;;;;;;;4.30;3.00;;;21.90;98.60;;;;;;5082745;28;20422;-69
2023/06/27 11:20:36;;;;;;;4.50;2.60;;;21.90;98.40;;;;;;5084921;28;20525;-68
2023/06/27 11:23:03;;;;;;;6.70;2.43;;;21.90;98.70;;;;;;5079859;28;20876;-68
2023/06/27 11:25:35;;;;;;;4.90;2.27;;;21.90;98.30;;;;;;5082596;28;20434;-69
2023/06/27 11:28:00;;;;;;;4.50;1.87;;;21.90;98.60;;;;;;5084543;28;20410;-69
2023/06/27 11:30:28;;;;;;;4.50;2.63;;;21.90;98.20;;;;;;5085313;28;20795;-69
2023/06/27 11:32:57;;;;;;;4.43;2.50;;;21.90;97.50;;;;;;5084128;28;20184;-69
2023/06/27 11:35:24;;;;;;;4.00;2.77;;;22.00;98.00;;;;;;5079948;28;20422;-68
2023/06/27 11:37:54;;;;;;;3.83;2.37;;;22.00;97.80;;;;;;5083103;28;20505;-69
2023/06/27 11:40:24;;;;;;;4.13;2.53;;;22.20;98.10;;;;;;5078195;28;20492;-69
2023/06/27 11:42:51;;;;;;;3.43;2.30;;;22.30;97.50;;;;;;5085522;28;20918;-69
2023/06/27 11:45:17;;;;;;;5.23;2.80;;;22.40;96.80;;;;;;5079412;28;20477;-69
2023/06/27 11:47:45;;;;;;;4.60;3.10;;;22.50;97.10;;;;;;5085886;28;20430;-68
2023/06/27 11:50:12;;;;;;;7.47;3.00;;;22.60;97.30;;;;;;5078296;28;20689;-68
2023/06/27 11:52:38;;;;;;;5.00;2.50;;;22.60;97.20;;;;;;5083769;28;20437;-69
2023/06/27 11:55:05;;;;;;;4.40;2.50;;;22.60;97.10;;;;;;5077622;28;20481;-68
2023/06/27 11:57:43;;;;;;;4.73;2.40;;;22.50;97.20;;;;;;5081319;28;20410;-69
2023/06/27 12:00:20;;;;;;;2.90;2.60;;;22.40;97.70;;;;;;5083040;28;20438;-69
2023/06/27 12:02:50;;;;;;;8.00;3.80;;;22.30;97.50;;;;;;5086037;28;20418;-69
2023/06/27 12:05:16;;;;;;;4.33;2.93;;;22.30;98.00;;;;;;5085372;28;20430;-69
2023/06/27 12:08:06;;;;;;;10.70;3.57;;;22.30;98.30;;;;;;5085006;28;20497;-68
2023/06/27 12:10:49;;;;;;;4.00;2.77;;;22.20;97.40;;;;;;5082842;28;20474;-68
2023/06/27 12:13:14;;;;;;;6.23;2.87;;;22.20;97.50;;;;;;5085386;28;20417;-69
2023/06/27 12:15:47;;;;;;;4.70;2.57;;;22.20;98.80;;;;;;5079986;28;21138;-68
2023/06/27 12:18:24;;;;;;;7.13;2.43;;;22.30;99.10;;;;;;5085525;28;20180;-69
2023/06/27 12:20:51;;;;;;;3.73;2.83;;;22.40;98.80;;;;;;5087037;28;20533;-68
2023/06/27 12:23:17;;;;;;;4.50;2.70;;;22.50;97.90;;;;;;5083451;28;20462;-70
2023/06/27 12:25:43;;;;;;;4.20;2.77;;;22.50;97.30;;;;;;5077038;28;21105;-68
2023/06/27 12:28:10;;;;;;;5.40;2.80;;;22.40;97.20;;;;;;5081196;28;20192;-69
2023/06/27 12:30:37;;;;;;;5.57;2.53;;;22.40;98.00;;;;;;5088148;28;20477;-70
2023/06/27 12:33:03;;;;;;;3.43;2.50;;;22.40;97.70;;;;;;5083486;28;20468;-69
2023/06/27 12:35:29;;;;;;;6.07;3.10;;;22.50;98.20;;;;;;5086800;28;20411;-69
2023/06/27 12:37:55;;;;;;;3.80;2.60;;;22.50;97.10;;;;;;5082403;28;20974;-68
2023/06/27 12:40:22;;;;;;;6.70;3.00;;;22.50;97.40;;;;;;5085624;28;20705;-69
2023/06/27 12:42:50;;;;;;;3.33;2.10;;;22.50;97.40;;;;;;5090021;28;20927;-68
2023/06/27 12:45:16;;;;;;;6.10;2.50;;;22.60;97.00;;;;;;5085136;28;20518;-67
2023/06/27 12:47:43;;;;;;;8.13;2.87;;;22.60;97.10;;;;;;5089631;28;20449;-69